createdAt,value
2022-10-17T00:02:05.899Z,100870.84
2022-10-17T00:04:32.198Z,100872.19
2022-10-17T00:06:58.539Z,100867.81
2022-10-17T00:09:24.882Z,100867.72
2022-10-17T00:11:51.219Z,100873.69
2022-10-17T00:14:17.598Z,100878.44
2022-10-17T00:16:44.003Z,100885.41
2022-10-17T00:19:10.323Z,100886.81
2022-10-17T00:21:36.677Z,100891.75
2022-10-17T00:24:03.200Z,100888.03
2022-10-17T00:26:29.552Z,100892.38
2022-10-17T00:28:56.258Z,100887.78
2022-10-17T00:31:24.001Z,100883.94
2022-10-17T00:33:51.159Z,100883.75
2022-10-17T00:36:21.334Z,100882.53
2022-10-17T00:38:51.918Z,100881.91
2022-10-17T00:41:21.059Z,100875.84
2022-10-17T00:44:01.553Z,100879.19
2022-10-17T00:46:38.792Z,100882.16
2022-10-17T00:49:09.313Z,100879.81
2022-10-17T00:51:41.738Z,100875.47
2022-10-17T00:54:09.519Z,100880.22
2022-10-17T00:56:35.978Z,100873.31
2022-10-17T00:59:02.792Z,100880.31
2022-10-17T01:01:29.386Z,100877.59
2022-10-17T01:03:55.752Z,100879.28
2022-10-17T01:06:22.074Z,100884.56
2022-10-17T01:08:48.563Z,100878.69
2022-10-17T01:11:25.092Z,100882.16
2022-10-17T01:13:58.321Z,100874.69
2022-10-17T01:16:39.592Z,100880.41
2022-10-17T01:19:08.766Z,100882.03
2022-10-17T01:21:56.956Z,100881.53
2022-10-17T01:24:37.489Z,100875.69
2022-10-17T01:27:34.366Z,100866.78
2022-10-17T01:30:16.590Z,100871.03
2022-10-17T01:33:12.502Z,100874.16
2022-10-17T01:36:04.810Z,100872.56
2022-10-17T01:38:43.450Z,100869.13
2022-10-17T01:41:32.509Z,100872.75
2022-10-17T01:44:14.071Z,100868.94
2022-10-17T01:46:45.303Z,100858.50
2022-10-17T01:49:16.129Z,100862.66
2022-10-17T01:51:51.023Z,100853.47
2022-10-17T01:54:36.106Z,100865.19
2022-10-17T01:57:08.298Z,100855.16
2022-10-17T01:59:45.986Z,100847.59
2022-10-17T02:02:15.200Z,100848.00
2022-10-17T02:04:42.471Z,100840.63
2022-10-17T02:07:10.406Z,100840.53
2022-10-17T02:09:37.123Z,100832.25
2022-10-17T02:12:24.754Z,100824.97
2022-10-17T02:15:29.336Z,100823.78
2022-10-17T02:18:17.925Z,100824.97
2022-10-17T02:20:53.311Z,100830.53
2022-10-17T02:23:38.305Z,100829.72
2022-10-17T02:26:30.379Z,100827.00
2022-10-17T02:29:19.221Z,100822.78
2022-10-17T02:31:49.873Z,100821.03
2022-10-17T02:34:27.729Z,100815.72
2022-10-17T02:36:58.243Z,100825.41
2022-10-17T02:39:27.300Z,100830.66
2022-10-17T02:41:57.291Z,100835.09
2022-10-17T02:44:25.042Z,100831.56
2022-10-17T02:47:03.086Z,100817.25
2022-10-17T02:49:34.934Z,100823.81
2022-10-17T02:52:14.161Z,100828.25
2022-10-17T02:54:48.666Z,100816.94
2022-10-17T02:57:36.793Z,100811.00
2022-10-17T03:00:06.459Z,100814.69
2022-10-17T03:02:45.258Z,100815.31
2022-10-17T03:05:14.447Z,100809.25
2022-10-17T03:07:40.758Z,100810.47
2022-10-17T03:10:07.327Z,100804.03
2022-10-17T03:12:33.659Z,100812.59
2022-10-17T03:14:59.994Z,100800.19
2022-10-17T03:17:26.346Z,100806.34
2022-10-17T03:19:52.672Z,100815.03
2022-10-17T03:22:18.995Z,100818.84
2022-10-17T03:24:45.293Z,100815.31
2022-10-17T03:27:11.873Z,100821.56
2022-10-17T03:29:38.195Z,100816.44
2022-10-17T03:32:04.683Z,100822.19
2022-10-17T03:34:31.018Z,100816.53
2022-10-17T03:36:57.348Z,100817.56
2022-10-17T03:39:23.782Z,100826.22
2022-10-17T03:41:50.111Z,100828.25
2022-10-17T03:44:16.393Z,100827.44
2022-10-17T03:46:42.752Z,100829.66
2022-10-17T03:49:09.936Z,100825.03
2022-10-17T03:51:36.625Z,100827.84
2022-10-17T03:54:02.976Z,100825.41
2022-10-17T03:56:29.339Z,100832.50
2022-10-17T03:58:56.507Z,100833.59
2022-10-17T04:01:23.378Z,100824.81
2022-10-17T04:03:54.755Z,100831.28
2022-10-17T04:06:22.205Z,100821.19
2022-10-17T04:08:49.915Z,100825.22
2022-10-17T04:11:21.439Z,100826.44
2022-10-17T04:13:48.264Z,100828.66
2022-10-17T04:16:16.930Z,100830.88
2022-10-17T04:18:44.229Z,100843.41
2022-10-17T04:21:11.625Z,100837.34
2022-10-17T04:23:38.811Z,100831.47
2022-10-17T04:26:06.004Z,100840.56
2022-10-17T04:28:33.206Z,100839.16
2022-10-17T04:31:08.205Z,100825.94
2022-10-17T04:33:34.710Z,100818.13
2022-10-17T04:36:03.669Z,100818.13
2022-10-17T04:38:30.558Z,100817.16
2022-10-17T04:41:00.961Z,100824.50
2022-10-17T04:43:27.250Z,100828.94
2022-10-17T04:45:53.592Z,100827.75
2022-10-17T04:48:20.135Z,100832.69
2022-10-17T04:50:56.372Z,100839.03
2022-10-17T04:53:24.007Z,100852.28
2022-10-17T04:55:50.849Z,100857.03
2022-10-17T04:58:17.415Z,100846.63
2022-10-17T05:00:43.787Z,100849.06
2022-10-17T05:03:10.181Z,100855.41
2022-10-17T05:05:40.783Z,100842.81
2022-10-17T05:08:08.479Z,100843.78
2022-10-17T05:10:39.282Z,100842.19
2022-10-17T05:13:06.079Z,100839.66
2022-10-17T05:15:32.745Z,100839.66
2022-10-17T05:17:59.102Z,100839.56
2022-10-17T05:20:26.174Z,100838.56
2022-10-17T05:22:52.548Z,100841.28
2022-10-17T05:25:19.320Z,100843.00
2022-10-17T05:27:45.836Z,100838.06
2022-10-17T05:30:12.183Z,100844.91
2022-10-17T05:32:38.701Z,100843.19
2022-10-17T05:35:05.584Z,100844.31
2022-10-17T05:37:32.109Z,100833.31
2022-10-17T05:39:58.413Z,100835.09
2022-10-17T05:42:24.875Z,100841.78
2022-10-17T05:44:51.232Z,100842.38
2022-10-17T05:47:17.788Z,100843.19
2022-10-17T05:49:48.662Z,100840.97
2022-10-17T05:52:18.497Z,100846.44
2022-10-17T05:54:44.830Z,100835.53
2022-10-17T05:57:11.653Z,100840.47
2022-10-17T05:59:37.965Z,100840.16
2022-10-17T06:02:04.397Z,100852.25
2022-10-17T06:04:30.745Z,100848.13
2022-10-17T06:06:57.162Z,100846.00
2022-10-17T06:09:24.257Z,100844.69
2022-10-17T06:11:50.583Z,100843.88
2022-10-17T06:14:16.957Z,100850.31
2022-10-17T06:16:43.288Z,100847.22
2022-10-17T06:19:09.604Z,100841.97
2022-10-17T06:21:35.914Z,100856.59
2022-10-17T06:24:02.246Z,100859.22
2022-10-17T06:26:28.543Z,100865.72
2022-10-17T06:28:55.578Z,100872.72
2022-10-17T06:31:21.922Z,100872.97
2022-10-17T06:33:48.234Z,100879.41
2022-10-17T06:36:15.151Z,100883.66
2022-10-17T06:38:41.786Z,100885.47
2022-10-17T06:41:13.873Z,100886.44
2022-10-17T06:43:42.024Z,100893.91
2022-10-17T06:46:08.763Z,100893.28
2022-10-17T06:48:35.349Z,100904.38
2022-10-17T06:51:02.887Z,100919.00
2022-10-17T06:53:30.815Z,100923.88
2022-10-17T06:55:57.384Z,100925.81
2022-10-17T06:58:23.939Z,100927.16
2022-10-17T07:00:50.431Z,100924.53
2022-10-17T07:03:16.862Z,100926.00
2022-10-17T07:05:43.183Z,100931.03
2022-10-17T07:08:09.472Z,100939.09
2022-10-17T07:10:35.773Z,100947.75
2022-10-17T07:13:02.083Z,100952.47
2022-10-17T07:15:28.383Z,100951.38
2022-10-17T07:17:54.687Z,100950.59
2022-10-17T07:20:21.059Z,100955.91
2022-10-17T07:22:47.344Z,100957.34
2022-10-17T07:25:13.674Z,100964.81
2022-10-17T07:27:40.012Z,100959.28
2022-10-17T07:30:07.134Z,100967.53
2022-10-17T07:32:33.525Z,100963.50
2022-10-17T07:34:59.806Z,100970.13
2022-10-17T07:37:26.180Z,100976.28
2022-10-17T07:39:52.551Z,100971.31
2022-10-17T07:42:18.855Z,100972.00
2022-10-17T07:44:45.157Z,100964.16
2022-10-17T07:47:11.441Z,100971.59
2022-10-17T07:49:37.749Z,100973.19
2022-10-17T07:52:04.089Z,100969.09
2022-10-17T07:54:30.428Z,100968.44
2022-10-17T07:56:56.738Z,100979.56
2022-10-17T07:59:23.061Z,100970.88
2022-10-17T08:01:49.366Z,100974.72
2022-10-17T08:04:15.668Z,100960.38
2022-10-17T08:06:42.011Z,100963.59
2022-10-17T08:09:08.309Z,100972.94
2022-10-17T08:11:34.627Z,100970.03
2022-10-17T08:14:00.909Z,100978.41
2022-10-17T08:16:27.223Z,100969.69
2022-10-17T08:18:53.572Z,100959.88
2022-10-17T08:21:19.971Z,100963.25
2022-10-17T08:23:46.423Z,100960.53
2022-10-17T08:26:13.461Z,100959.66
2022-10-17T08:28:40.551Z,100956.75
2022-10-17T08:31:10.337Z,100957.41
2022-10-17T08:33:36.790Z,100957.41
2022-10-17T08:36:05.270Z,100956.09
2022-10-17T08:38:35.415Z,100947.38
2022-10-17T08:41:11.859Z,100941.56
2022-10-17T08:43:57.174Z,100942.69
2022-10-17T08:46:31.054Z,100941.53
2022-10-17T08:49:01.071Z,100938.91
2022-10-17T08:51:33.693Z,100940.81
2022-10-17T08:54:20.900Z,100932.66
2022-10-17T08:56:51.019Z,100943.41
2022-10-17T08:59:23.273Z,100929.25
2022-10-17T09:02:43.455Z,100937.00
2022-10-17T09:05:45.131Z,100943.31
2022-10-17T09:08:35.747Z,100933.91
2022-10-17T09:11:15.714Z,100944.88
2022-10-17T09:13:54.247Z,100949.66
2022-10-17T09:16:58.372Z,100939.38
2022-10-17T09:19:35.299Z,100946.53
2022-10-17T09:22:06.331Z,100944.88
2022-10-17T09:24:43.110Z,100955.13
2022-10-17T09:27:22.986Z,100954.00
2022-10-17T09:29:54.369Z,100953.63
2022-10-17T09:32:25.474Z,100951.44
2022-10-17T09:34:53.552Z,100940.63
2022-10-17T09:37:25.234Z,100946.94
2022-10-17T09:39:51.667Z,100947.28
2022-10-17T09:42:21.084Z,100943.78
2022-10-17T09:44:54.591Z,100937.91
2022-10-17T09:47:26.870Z,100942.72
2022-10-17T09:49:53.463Z,100947.50
2022-10-17T09:52:36.284Z,100945.59
2022-10-17T09:55:07.186Z,100947.03
2022-10-17T09:57:54.284Z,100947.72
2022-10-17T10:00:26.976Z,100954.91
2022-10-17T10:03:30.183Z,100944.66
2022-10-17T10:06:01.187Z,100947.94
2022-10-17T10:08:34.834Z,100950.28
2022-10-17T10:11:05.574Z,100943.66
2022-10-17T10:13:34.245Z,100941.81
2022-10-17T10:16:30.610Z,100946.53
2022-10-17T10:18:57.689Z,100952.03
2022-10-17T10:21:26.871Z,100942.00
2022-10-17T10:23:59.235Z,100968.72
2022-10-17T10:26:35.042Z,100978.16
2022-10-17T10:29:36.529Z,100979.66
2022-10-17T10:32:11.761Z,100972.56
2022-10-17T10:34:47.772Z,100972.09
2022-10-17T10:37:27.168Z,100970.94
2022-10-17T10:39:58.129Z,100976.72
2022-10-17T10:42:28.847Z,100965.94
2022-10-17T10:44:59.786Z,100974.03
2022-10-17T10:47:31.148Z,100975.56
2022-10-17T10:50:31.657Z,100957.97
2022-10-17T10:53:21.247Z,100968.47
2022-10-17T10:55:55.284Z,100966.84
2022-10-17T10:58:49.225Z,100988.25
2022-10-17T11:01:20.229Z,100990.69
2022-10-17T11:04:04.916Z,101006.47
2022-10-17T11:06:36.513Z,100997.91
2022-10-17T11:09:33.112Z,101005.34
2022-10-17T11:12:11.909Z,101007.88
2022-10-17T11:14:40.829Z,101014.94
2022-10-17T11:17:30.547Z,101018.00
2022-10-17T11:20:09.285Z,101017.66
2022-10-17T11:23:04.807Z,101023.47
2022-10-17T11:25:37.303Z,101030.44
2022-10-17T11:28:11.099Z,101042.41
2022-10-17T11:31:07.085Z,101039.84
2022-10-17T11:33:59.613Z,101057.66
2022-10-17T11:36:30.980Z,101061.16
2022-10-17T11:39:06.043Z,101066.31
2022-10-17T11:41:36.757Z,101066.94
2022-10-17T11:44:18.541Z,101062.47
2022-10-17T11:46:50.551Z,101065.84
2022-10-17T11:49:22.187Z,101068.25
2022-10-17T11:52:02.411Z,101074.69
2022-10-17T11:54:38.034Z,101066.66
2022-10-17T11:57:32.016Z,101072.25
2022-10-17T12:00:07.443Z,101083.38
2022-10-17T12:02:33.929Z,101089.75
2022-10-17T12:05:18.619Z,101085.56
2022-10-17T12:08:08.222Z,101096.16
2022-10-17T12:10:46.856Z,101093.84
2022-10-17T12:13:28.498Z,101090.47
2022-10-17T12:16:19.135Z,101095.03
2022-10-17T12:19:19.243Z,101102.22
2022-10-17T12:21:57.570Z,101100.59
2022-10-17T12:24:36.491Z,101095.84
2022-10-17T12:27:22.948Z,101094.66
2022-10-17T12:29:50.259Z,101089.34
2022-10-17T12:32:16.846Z,101090.91
2022-10-17T12:34:54.523Z,101088.78
2022-10-17T12:37:42.551Z,101091.16
2022-10-17T12:40:36.875Z,101096.53
2022-10-17T12:43:15.247Z,101099.78
2022-10-17T12:45:48.567Z,101102.63
2022-10-17T12:48:33.811Z,101101.50
2022-10-17T12:54:10.102Z,101091.66
2022-10-17T12:56:40.272Z,101097.41
2022-10-17T12:59:16.514Z,101094.09
2022-10-17T13:01:46.562Z,101092.13
2022-10-17T13:04:13.160Z,101088.75
2022-10-17T13:06:46.450Z,101074.91
2022-10-17T13:09:22.627Z,101079.34
2022-10-17T13:11:50.034Z,101079.16
2022-10-17T13:14:19.926Z,101084.78
2022-10-17T13:17:04.862Z,101084.88
2022-10-17T13:19:43.427Z,101084.50
2022-10-17T13:22:28.673Z,101085.53
2022-10-17T13:25:08.256Z,101092.97
2022-10-17T13:27:36.859Z,101101.88
2022-10-17T13:30:32.000Z,101091.25
2022-10-17T13:32:59.393Z,101094.88
2022-10-17T13:35:58.892Z,101105.28
2022-10-17T13:38:30.142Z,101108.03
2022-10-17T13:41:02.005Z,101101.44
2022-10-17T13:43:37.712Z,101108.44
2022-10-17T13:46:19.344Z,101115.38
2022-10-17T13:48:51.602Z,101113.66
2022-10-17T13:51:18.052Z,101118.84
2022-10-17T13:53:44.410Z,101122.53
2022-10-17T13:56:33.692Z,101120.38
2022-10-17T13:59:09.626Z,101124.19
2022-10-17T14:01:38.155Z,101130.28
2022-10-17T14:04:19.557Z,101133.34
2022-10-17T14:06:49.673Z,101142.44
2022-10-17T14:09:23.648Z,101147.38
2022-10-17T14:12:09.740Z,101141.66
2022-10-17T14:14:58.341Z,101153.41
2022-10-17T14:17:29.843Z,101149.50
2022-10-17T14:20:16.137Z,101153.06
2022-10-17T14:22:50.434Z,101160.06
2022-10-17T14:25:39.187Z,101165.59
2022-10-17T14:28:11.462Z,101163.41
2022-10-17T14:33:30.084Z,101160.41
2022-10-17T14:35:59.244Z,101169.84
2022-10-17T14:38:26.884Z,101168.25
2022-10-17T14:41:41.795Z,101174.78
2022-10-17T14:43:58.029Z,101172.81
2022-10-17T14:46:25.371Z,101186.97
2022-10-17T14:49:02.344Z,101188.09
2022-10-17T14:51:32.553Z,101192.59
2022-10-17T14:54:27.083Z,101191.91
2022-10-17T14:56:54.059Z,101197.78
2022-10-17T14:59:30.244Z,101199.72
2022-10-17T15:02:06.775Z,101203.38
2022-10-17T15:04:33.104Z,101207.72
2022-10-17T15:06:59.414Z,101205.44
2022-10-17T15:09:25.936Z,101207.72
2022-10-17T15:11:52.582Z,101206.75
2022-10-17T15:14:18.899Z,101203.78
2022-10-17T15:16:45.204Z,101213.34
2022-10-17T15:19:13.540Z,101210.94
2022-10-17T15:21:44.694Z,101205.19
2022-10-17T15:24:13.396Z,101204.19
2022-10-17T15:26:39.753Z,101226.59
2022-10-17T15:29:06.476Z,101215.59
2022-10-17T15:31:33.206Z,101216.38
2022-10-17T15:33:59.540Z,101208.44
2022-10-17T15:36:28.419Z,101205.38
2022-10-17T15:38:57.254Z,101209.34
2022-10-17T15:41:26.323Z,101217.38
2022-10-17T15:43:52.907Z,101222.06
2022-10-17T15:46:27.905Z,101225.72
2022-10-17T15:48:55.716Z,101230.16
2022-10-17T15:51:23.255Z,101236.19
2022-10-17T15:53:49.607Z,101240.09
2022-10-17T15:56:22.887Z,101246.50
2022-10-17T15:58:49.573Z,101247.34
2022-10-17T16:01:22.030Z,101260.25
2022-10-17T16:03:48.437Z,101263.66
2022-10-17T16:06:14.885Z,101266.94
2022-10-17T16:08:41.268Z,101267.75
2022-10-17T16:11:15.105Z,101274.72
2022-10-17T16:13:41.511Z,101276.69
2022-10-17T16:16:11.912Z,101285.56
2022-10-17T16:18:38.263Z,101282.66
2022-10-17T16:21:04.751Z,101294.28
2022-10-17T16:23:31.054Z,101287.56
2022-10-17T16:25:57.364Z,101293.06
2022-10-17T16:28:23.710Z,101298.13
2022-10-17T16:30:50.107Z,101298.56
2022-10-17T16:33:16.401Z,101301.50
2022-10-17T16:35:42.802Z,101285.59
2022-10-17T16:38:09.102Z,101306.06
2022-10-17T16:40:38.532Z,101307.97
2022-10-17T16:43:04.847Z,101307.47
2022-10-17T16:45:31.364Z,101307.63
2022-10-17T16:47:57.694Z,101315.72
2022-10-17T16:50:24.152Z,101314.03
2022-10-17T16:52:50.629Z,101321.25
2022-10-17T16:55:17.179Z,101315.44
2022-10-17T17:00:11.839Z,101332.13
2022-10-17T17:02:38.548Z,101330.81
2022-10-17T17:05:05.349Z,101333.38
2022-10-17T17:07:32.121Z,101344.56
2022-10-17T17:09:58.559Z,101339.91
2022-10-17T17:12:24.961Z,101341.81
2022-10-17T17:14:51.309Z,101348.13
2022-10-17T17:17:30.276Z,101354.28
2022-10-17T17:20:04.232Z,101355.25
2022-10-17T17:22:30.600Z,101369.81
2022-10-17T17:24:56.927Z,101371.88
2022-10-17T17:27:23.234Z,101368.81
2022-10-17T17:29:49.539Z,101362.34
2022-10-17T17:32:15.839Z,101364.94
2022-10-17T17:34:42.164Z,101370.44
2022-10-17T17:37:08.468Z,101359.28
2022-10-17T17:39:34.934Z,101363.19
2022-10-17T17:42:01.273Z,101364.63
2022-10-17T17:44:27.567Z,101357.69
2022-10-17T17:46:53.866Z,101365.94
2022-10-17T17:49:20.226Z,101367.38
2022-10-17T17:51:46.655Z,101366.72
2022-10-17T17:54:13.291Z,101374.31
2022-10-17T17:56:40.181Z,101373.66
2022-10-17T17:59:07.022Z,101373.97
2022-10-17T18:01:34.933Z,101377.06
2022-10-17T18:04:01.291Z,101376.72
2022-10-17T18:06:28.098Z,101373.97
2022-10-17T18:08:57.267Z,101371.41
2022-10-17T18:11:24.189Z,101383.03
2022-10-17T18:13:58.906Z,101372.19
2022-10-17T18:16:26.147Z,101379.44
2022-10-17T18:18:52.847Z,101371.53
2022-10-17T18:21:19.198Z,101381.84
2022-10-17T18:23:47.625Z,101385.88
2022-10-17T18:26:14.375Z,101377.63
2022-10-17T18:31:19.628Z,101380.19
2022-10-17T18:33:46.358Z,101387.75
2022-10-17T18:36:14.705Z,101388.50
2022-10-17T18:38:41.848Z,101376.06
2022-10-17T18:41:13.644Z,101373.47
2022-10-17T18:43:41.858Z,101387.94
2022-10-17T18:46:13.877Z,101392.91
2022-10-17T18:48:43.247Z,101402.38
2022-10-17T18:51:09.930Z,101404.44
2022-10-17T18:53:40.508Z,101403.41
2022-10-17T18:56:07.639Z,101403.59
2022-10-17T18:58:34.019Z,101417.94
2022-10-17T19:01:05.475Z,101425.63
2022-10-17T19:03:32.398Z,101421.47
2022-10-17T19:06:07.588Z,101432.38
2022-10-17T19:08:35.064Z,101428.88
2022-10-17T19:11:12.491Z,101436.59
2022-10-17T19:13:39.616Z,101433.19
2022-10-17T19:16:11.321Z,101440.66
2022-10-17T19:18:38.106Z,101435.50
2022-10-17T19:21:06.847Z,101445.09
2022-10-17T19:23:33.721Z,101437.50
2022-10-17T19:26:05.298Z,101442.91
2022-10-17T19:28:32.644Z,101446.19
2022-10-17T19:30:59.015Z,101440.22
2022-10-17T19:33:25.624Z,101441.72
2022-10-17T19:35:56.487Z,101444.19
2022-10-17T19:38:22.853Z,101433.50
2022-10-17T19:40:49.439Z,101436.19
2022-10-17T19:43:15.953Z,101428.44
2022-10-17T19:45:42.426Z,101437.97
2022-10-17T19:48:08.912Z,101433.00
2022-10-17T19:50:36.728Z,101434.75
2022-10-17T19:53:05.562Z,101439.72
2022-10-17T19:55:32.881Z,101431.69
2022-10-17T19:57:59.202Z,101430.25
2022-10-17T20:00:25.509Z,101437.34
2022-10-17T20:02:51.839Z,101441.84
2022-10-17T20:05:19.217Z,101442.78
2022-10-17T20:07:46.046Z,101443.44
2022-10-17T20:10:12.382Z,101448.94
2022-10-17T20:12:38.715Z,101458.91
2022-10-17T20:15:05.484Z,101450.19
2022-10-17T20:17:31.963Z,101455.22
2022-10-17T20:19:58.309Z,101460.53
2022-10-17T20:22:24.731Z,101470.69
2022-10-17T20:24:51.076Z,101476.72
2022-10-17T20:27:17.412Z,101489.06
2022-10-17T20:29:43.718Z,101486.38
2022-10-17T20:32:10.059Z,101496.91
2022-10-17T20:34:36.834Z,101494.78
2022-10-17T20:37:03.369Z,101500.41
2022-10-17T20:39:30.296Z,101506.47
2022-10-17T20:41:56.682Z,101510.88
2022-10-17T20:44:23.006Z,101505.38
2022-10-17T20:47:01.200Z,101508.50
2022-10-17T20:49:29.825Z,101516.97
2022-10-17T20:51:56.653Z,101521.03
2022-10-17T20:54:22.985Z,101523.44
2022-10-17T20:56:49.590Z,101539.72
2022-10-17T20:59:17.201Z,101538.47
2022-10-17T21:01:44.722Z,101540.59
2022-10-17T21:04:40.663Z,101543.66
2022-10-17T21:06:58.604Z,101548.72
2022-10-17T21:09:25.147Z,101545.78
2022-10-17T21:11:51.783Z,101551.69
2022-10-17T21:14:18.488Z,101550.59
2022-10-17T21:16:44.839Z,101553.03
2022-10-17T21:19:12.627Z,101555.88
2022-10-17T21:21:41.675Z,101549.19
2022-10-17T21:24:10.447Z,101547.66
2022-10-17T21:26:37.523Z,101559.31
2022-10-17T21:29:04.971Z,101562.97
2022-10-17T21:31:35.852Z,101562.78
2022-10-17T21:34:08.245Z,101561.56
2022-10-17T21:36:34.790Z,101562.78
2022-10-17T21:39:01.269Z,101568.59
2022-10-17T21:41:29.152Z,101562.50
2022-10-17T21:44:03.871Z,101559.75
2022-10-17T21:46:30.495Z,101557.31
2022-10-17T21:48:59.085Z,101562.59
2022-10-17T21:51:26.419Z,101564.19
2022-10-17T21:53:54.354Z,101563.91
2022-10-17T21:56:23.271Z,101564.00
2022-10-17T21:58:51.120Z,101566.13
2022-10-17T22:01:20.312Z,101556.22
2022-10-17T22:03:50.727Z,101556.69
2022-10-17T22:09:09.954Z,101553.47
2022-10-17T22:11:36.640Z,101546.13
2022-10-17T22:14:05.875Z,101552.84
2022-10-17T22:16:32.907Z,101549.38
2022-10-17T22:19:04.812Z,101547.16
2022-10-17T22:21:33.972Z,101547.66
2022-10-17T22:24:03.340Z,101550.28
2022-10-17T22:26:31.188Z,101555.47
2022-10-17T22:28:58.009Z,101564.50
2022-10-17T22:31:24.657Z,101560.72
2022-10-17T22:33:51.290Z,101563.78
2022-10-17T22:36:17.971Z,101570.78
2022-10-17T22:38:44.475Z,101570.59
2022-10-17T22:41:11.040Z,101559.13
2022-10-17T22:43:37.450Z,101568.94
2022-10-17T22:46:06.004Z,101572.91
2022-10-17T22:48:32.668Z,101580.41
2022-10-17T22:51:00.210Z,101582.34
2022-10-17T22:53:27.070Z,101578.78
2022-10-17T22:55:55.343Z,101582.75
2022-10-17T22:58:22.193Z,101584.25
2022-10-17T23:00:49.808Z,101590.56
2022-10-17T23:03:16.919Z,101587.91
2022-10-17T23:05:43.867Z,101592.38
2022-10-17T23:08:11.331Z,101594.81
2022-10-17T23:10:37.946Z,101601.94
2022-10-17T23:13:05.014Z,101592.19
2022-10-17T23:15:32.726Z,101591.75
2022-10-17T23:18:00.273Z,101600.59
2022-10-17T23:20:27.440Z,101599.88
2022-10-17T23:22:53.873Z,101597.44
2022-10-17T23:25:20.273Z,101594.50
2022-10-17T23:27:46.613Z,101590.44
2022-10-17T23:30:13.412Z,101597.03
2022-10-17T23:32:40.539Z,101590.84
2022-10-17T23:35:08.195Z,101592.88
2022-10-17T23:37:35.259Z,101590.13
2022-10-17T23:40:01.952Z,101592.94
2022-10-17T23:42:28.448Z,101600.63
2022-10-17T23:44:54.940Z,101599.22
2022-10-17T23:47:21.450Z,101594.19
2022-10-17T23:52:15.674Z,101594.59
2022-10-17T23:57:13.578Z,101598.38
2022-10-17T23:59:39.898Z,101590.53
